Latest Weather Observations for Bushy Park

IDT60901

Issued at 12:51 pm EST Thursday 24 August 2017 (issued every 10 minutes, with the page automatically refreshed every 10 minutes)

About weather observations | Map of Hobart area stations | Latest observations for Hobart area | Other Formats
Station Details ID: 095003 Name: BUSHY PARK (BUSHY PARK ESTATES) Lat: -42.71 Lon: 146.90 Height: 27.0 m
Data from the previous 72 hours. | See also: Recent months at Bushy Park
Date/Time
EST
Temp
°C
App
Temp
°C
Dew
Point
°C
Rel
Hum
%
Delta-T
°C
Wind Press
QNH
hPa
Press
MSL
hPa
Rain since
9am
mm
Dir  Spd
km/h
Gust
km/h
Spd
kts
Gust
kts
24/12:30pm 12.5 8.7 3.9 56 3.9 N 13 17 7 9 - - 0.0
24/12:00pm 11.6 8.2 4.1 60 3.4 N 11 15 6 8 - - 0.0
24/11:30am 10.2 7.1 3.7 64 2.9 NNE 9 13 5 7 - - 0.0
24/11:00am 8.9 5.7 3.1 67 2.5 N 9 11 5 6 - - 0.0
24/10:30am 7.9 5.2 2.4 68 2.3 E 6 9 3 5 - - 0.0
24/10:00am 6.6 3.7 2.5 75 1.7 NNE 7 9 4 5 - - 0.0
24/09:30am 4.8 1.4 2.1 83 1.1 NNE 9 9 5 5 - - 0.0
24/09:00am 3.5 0.0 1.5 87 0.8 NNW 9 13 5 7 - - 6.2
24/08:30am 2.8 -0.2 1.8 93 0.4 N 7 11 4 6 - - 6.2
24/08:00am 1.4 -2.2 0.9 96 0.2 NNE 9 11 5 6 - - 6.2
24/07:30am 0.4 - - - - N 4 9 2 5 - - 6.2
24/07:00am -0.1 - - - - NNW 6 9 3 5 - - 6.2
24/06:30am -0.5 - - - - SW 2 9 1 5 - - 6.2
24/06:00am -1.0 - - - - NW 4 7 2 4 - - 6.2
24/05:30am -0.7 - - - - CALM 0 0 0 0 - - 6.2
24/05:00am -0.4 - - - - NW 9 11 5 6 - - 6.2
24/04:30am -0.3 - - - - N 6 11 3 6 - - 6.2
24/04:00am 0.1 - - - - NW 9 11 5 6 - - 6.2
24/03:30am 0.1 - - - - N 6 9 3 5 - - 6.2
24/03:00am 0.3 - - - - N 6 7 3 4 - - 6.2
24/02:30am 0.4 - - - - SW 9 11 5 6 - - 6.2
24/02:00am 0.5 - - - - NE 6 7 3 4 - - 6.2
24/01:30am 0.3 - - - - WNW 9 17 5 9 - - 6.2
24/01:00am 0.6 -3.5 0.1 96 0.2 NNW 11 15 6 8 - - 6.2
24/12:30am 0.9 -2.8 0.1 94 0.3 N 9 13 5 7 - - 6.2
24/12:00am 1.0 -3.0 0.2 94 0.3 NNW 11 13 6 7 - - 6.2
 
Date/Time
EST
Temp
°C
App
Temp
°C
Dew
Point
°C
Rel
Hum
%
Delta-T
°C
Wind Press
QNH
hPa
Press
MSL
hPa
Rain since
9am
mm
Dir  Spd
km/h
Gust
km/h
Spd
kts
Gust
kts
23/11:30pm 1.5 -1.1 0.7 94 0.3 ESE 4 11 2 6 - - 6.2
23/11:00pm 1.7 -1.3 0.6 92 0.4 ENE 6 9 3 5 - - 6.2
23/10:30pm 2.4 -1.1 1.4 93 0.4 NW 9 13 5 7 - - 6.2
23/10:00pm 2.6 -0.3 1.6 93 0.4 N 6 13 3 7 - - 6.2
23/09:30pm 3.2 0.8 1.9 91 0.5 N 4 9 2 5 - - 6.2
23/09:00pm 3.7 -0.2 1.4 85 0.9 WSW 11 13 6 7 - - 6.2
23/08:30pm 4.1 1.4 2.4 89 0.7 W 6 9 3 5 - - 6.2
23/08:00pm 4.7 2.4 3.0 89 0.7 NNE 4 9 2 5 - - 6.2
23/07:30pm 6.9 2.9 2.9 76 1.7 WSW 13 20 7 11 - - 6.2
23/07:00pm 7.5 3.2 3.0 73 1.9 WSW 15 24 8 13 - - 6.2
23/06:30pm 7.9 4.0 3.5 74 1.9 SW 13 20 7 11 - - 6.2
23/06:00pm 8.0 4.3 4.6 79 1.5 WSW 13 22 7 12 - - 6.2
23/05:30pm 9.0 6.2 5.3 77 1.7 WNW 9 17 5 9 - - 6.2
23/05:00pm 9.4 8.4 7.5 88 0.9 N 2 11 1 6 - - 6.2
23/04:30pm 9.6 8.6 7.5 87 1.0 SSE 2 7 1 4 - - 6.2
23/04:00pm 10.1 7.7 7.0 81 1.5 NNW 9 15 5 8 - - 6.0
23/03:30pm 11.8 9.1 5.6 66 2.9 N 9 11 5 6 - - 5.4
23/03:00pm 11.6 8.9 5.6 66 2.8 NE 9 11 5 6 - - 5.4
23/02:30pm 11.7 9.7 6.2 69 2.6 NE 6 9 3 5 - - 5.4
23/02:00pm 10.6 8.7 6.6 76 1.9 E 6 9 3 5 - - 5.4
23/01:30pm 9.5 7.1 7.2 85 1.1 NE 9 9 5 5 - - 5.4
23/01:00pm 9.3 7.4 6.8 84 1.2 N 6 7 3 4 - - 5.2
23/12:30pm 9.5 7.3 6.3 80 1.5 N 7 9 4 5 - - 4.8
23/12:00pm 9.2 8.0 6.4 83 1.3 ENE 2 6 1 3 - - 4.6
23/11:30am 8.8 7.0 7.3 90 0.7 SW 6 7 3 4 - - 4.6
23/11:00am 8.4 6.4 7.3 93 0.5 SE 7 9 4 5 - - 4.2
23/10:30am 8.1 5.7 6.8 91 0.6 SSE 9 13 5 7 - - 3.4
23/10:00am 8.0 4.4 6.9 93 0.5 S 15 20 8 11 - - 2.2
23/09:30am 8.0 4.8 6.9 93 0.5 S 13 17 7 9 - - 1.0
23/09:00am 8.0 6.1 7.6 97 0.2 S 7 11 4 6 - - 2.2
23/08:30am 7.9 7.3 7.3 96 0.3 CALM 0 4 0 2 - - 1.6
23/08:00am 7.7 6.3 7.1 96 0.3 W 4 7 2 4 - - 1.2
23/07:30am 7.4 5.4 7.0 97 0.2 WSW 7 9 4 5 - - 1.0
23/07:00am 7.3 5.8 6.7 96 0.3 SW 4 9 2 5 - - 0.8
23/06:30am 7.2 6.4 6.6 96 0.3 CALM 0 0 0 0 - - 0.8
23/06:00am 7.3 6.5 6.7 96 0.3 CALM 0 0 0 0 - - 0.6
23/05:30am 7.2 6.4 6.6 96 0.3 CALM 0 0 0 0 - - 0.4
23/05:00am 7.3 6.5 6.4 94 0.4 CALM 0 0 0 0 - - 0.2
23/04:30am 7.4 5.8 6.3 93 0.5 SE 4 7 2 4 - - 0.0
23/04:00am 7.5 6.7 6.4 93 0.5 CALM 0 0 0 0 - - 0.0
23/03:30am 7.1 6.2 6.0 93 0.5 CALM 0 7 0 4 - - 0.0
23/03:00am 7.6 5.6 6.3 91 0.6 W 6 9 3 5 - - 0.0
23/02:30am 7.4 5.2 6.1 91 0.6 S 7 9 4 5 - - 0.0
23/02:00am 7.5 5.3 6.2 91 0.6 SSW 7 9 4 5 - - 0.0
23/01:30am 7.5 5.3 6.0 90 0.7 SW 7 9 4 5 - - 0.0
23/01:00am 7.5 5.4 5.7 88 0.8 NNW 6 7 3 4 - - 0.0
23/12:30am 8.3 5.9 5.4 82 1.3 WNW 7 9 4 5 - - 0.0
23/12:00am 9.0 5.4 4.8 75 1.9 N 13 17 7 9 - - 0.0
 
Date/Time
EST
Temp
°C
App
Temp
°C
Dew
Point
°C
Rel
Hum
%
Delta-T
°C
Wind Press
QNH
hPa
Press
MSL
hPa
Rain since
9am
mm
Dir  Spd
km/h
Gust
km/h
Spd
kts
Gust
kts
22/11:30pm 8.9 6.6 4.9 76 1.8 E 6 9 3 5 - - 0.0
22/11:00pm 9.3 6.8 4.9 74 2.0 SE 7 13 4 7 - - 0.0
22/10:30pm 10.0 7.2 5.0 71 2.3 NE 9 15 5 8 - - 0.0
22/10:00pm 10.2 5.8 4.7 68 2.5 NE 17 19 9 10 - - 0.0
22/09:30pm 10.1 6.5 5.1 71 2.3 NE 13 20 7 11 - - 0.0
22/09:00pm 10.3 6.3 4.8 69 2.5 N 15 20 8 11 - - 0.0
22/08:30pm 10.6 6.2 4.7 67 2.7 N 17 20 9 11 - - 0.0
22/08:00pm 10.7 6.3 4.8 67 2.7 N 17 22 9 12 - - 0.0
22/07:30pm 10.8 6.8 4.7 66 2.8 N 15 19 8 10 - - 0.0
22/07:00pm 11.7 5.9 4.5 61 3.3 N 24 37 13 20 - - 0.0
22/06:30pm 12.2 7.1 4.1 57 3.7 N 20 28 11 15 - - 0.0
22/06:00pm 12.8 7.8 3.8 54 4.1 NNW 19 26 10 14 - - 0.0
22/05:30pm 13.4 8.3 3.2 50 4.6 N 19 33 10 18 - - 0.0
22/05:00pm 14.4 7.7 3.5 48 4.9 NNW 28 37 15 20 - - 0.0
22/04:30pm 15.0 9.0 3.5 46 5.2 NNW 24 33 13 18 - - 0.0
22/04:00pm 16.4 12.2 3.8 43 5.8 N 15 26 8 14 - - 0.0
22/03:30pm 16.1 11.0 3.3 42 5.9 NNW 19 32 10 17 - - 0.0
22/03:00pm 14.6 9.6 3.8 48 4.9 NNW 19 26 10 14 - - 0.0
22/02:30pm 14.2 11.1 5.4 55 4.1 NNW 11 15 6 8 - - 0.0
22/02:00pm 14.0 11.4 5.9 58 3.9 WSW 9 13 5 7 - - 0.0
22/01:30pm 14.2 11.9 5.9 57 4.0 N 7 11 4 6 - - 0.0
22/01:00pm 13.1 12.1 5.7 61 3.5 CALM 0 6 0 3 - - 0.0
22/12:30pm 12.2 9.9 4.9 61 3.3 SE 6 9 3 5 - - 0.0
22/12:00pm 11.5 9.2 4.7 63 3.1 ENE 6 7 3 4 - - 0.0
22/11:30am 9.9 7.9 4.3 68 2.5 SE 4 7 2 4 - - 0.0
22/11:00am 8.7 6.5 3.4 69 2.3 E 4 7 2 4 - - 0.0
22/10:30am 7.0 4.4 3.2 77 1.6 ESE 6 9 3 5 - - 0.0
22/10:00am 5.2 2.3 2.5 83 1.1 ENE 7 9 4 5 - - 0.0
22/09:30am 2.6 -0.6 -0.7 79 1.2 ESE 6 9 3 5 - - 0.0
22/09:00am 1.3 - - - - ENE 4 13 2 7 - - 0.0
22/08:30am 0.4 - - - - CALM 0 0 0 0 - - 0.0
22/08:00am -0.1 - - - - CALM 0 0 0 0 - - 0.0
22/07:30am -0.7 - - - - CALM 0 0 0 0 - - 0.0
22/07:00am -1.3 - - - - NNW 6 7 3 4 - - 0.0
22/06:30am -1.2 - - - - NW 6 7 3 4 - - 0.0
22/06:00am -1.1 - - - - W 6 7 3 4 - - 0.0
22/05:30am -1.2 - - - - SSW 11 13 6 7 - - 0.0
22/05:00am -1.4 - - - - NW 7 11 4 6 - - 0.0
22/04:30am -1.0 - - - - NW 7 11 4 6 - - 0.0
22/04:00am -1.1 - - - - NW 9 15 5 8 - - 0.0
22/03:30am -1.2 - - - - CALM 0 0 0 0 - - 0.0
22/03:00am -1.1 - - - - N 2 6 1 3 - - 0.0
22/02:30am -0.7 - - - - SW 2 9 1 5 - - 0.0
22/02:00am -0.4 - - - - WSW 6 7 3 4 - - 0.0
22/01:30am -0.6 - - - - W 9 11 5 6 - - 0.0
22/01:00am -0.3 - - - - CALM 0 0 0 0 - - 0.0
22/12:30am 0.2 - - - - WNW 4 9 2 5 - - 0.0
22/12:00am 0.5 - - - - SW 9 11 5 6 - - 0.0
 
Date/Time
EST
Temp
°C
App
Temp
°C
Dew
Point
°C
Rel
Hum
%
Delta-T
°C
Wind Press
QNH
hPa
Press
MSL
hPa
Rain since
9am
mm
Dir  Spd
km/h
Gust
km/h
Spd
kts
Gust
kts
21/11:30pm 0.9 -1.1 0.1 94 0.3 CALM 0 0 0 0 - - 0.0
21/11:00pm 1.3 -1.4 0.5 94 0.3 NW 4 7 2 4 - - 0.0
21/10:30pm 1.8 -1.2 0.7 92 0.4 W 6 9 3 5 - - 0.0
21/10:00pm 2.3 -0.6 1.3 93 0.4 SW 6 9 3 5 - - 0.0
21/09:30pm 3.0 1.3 1.7 91 0.5 CALM 0 0 0 0 - - 0.0
21/09:00pm 4.2 1.3 2.7 90 0.6 W 7 13 4 7 - - 0.0
21/08:30pm 4.9 2.7 3.2 89 0.7 W 4 9 2 5 - - 0.0
21/08:00pm 4.8 2.6 3.4 91 0.6 W 4 11 2 6 - - 0.0
21/07:30pm 5.1 2.5 3.2 87 0.8 WNW 6 9 3 5 - - 0.0
21/07:00pm 5.7 3.0 3.6 86 0.9 W 7 11 4 6 - - 0.0
21/06:30pm 6.9 - 3.9 81 1.3 - - - - - - - 0.0
21/06:00pm 7.4 4.4 4.2 80 1.4 SSW 9 11 5 6 - - 0.0
21/05:30pm 9.4 8.1 4.2 70 2.3 CALM 0 0 0 0 - - 0.0
21/05:00pm 10.4 9.0 3.4 62 3.1 CALM 0 6 0 3 - - 0.0
21/04:30pm 12.3 9.2 1.6 48 4.6 NW 7 9 4 5 - - 0.0
21/04:00pm 12.1 8.5 2.8 53 4.1 N 11 15 6 8 - - 0.0
21/03:30pm 12.6 8.5 2.4 50 4.4 N 13 17 7 9 - - 0.0
21/03:00pm 12.3 9.0 2.2 50 4.4 NNW 9 13 5 7 - - 0.0
21/02:30pm 12.6 9.9 2.4 50 4.4 N 6 11 3 6 - - 0.0
21/02:00pm 11.6 8.8 3.0 55 3.8 NNE 7 11 4 6 - - 0.0
21/01:30pm 9.9 7.0 2.7 61 3.1 E 7 9 4 5 - - 0.0
21/01:00pm 11.4 8.8 3.0 56 3.7 E 6 9 3 5 - - 0.0

Latest Capital City Observations: Canberra | Sydney | Melbourne | Brisbane | Adelaide | Perth | Hobart | Darwin

Other Formats:

Comma delimited format used in spreadsheet applications
http://www.bom.gov.au/fwo/IDT60901/IDT60901.94964.axf

JavaScript Object Notation format (JSON) in row-major order
http://www.bom.gov.au/fwo/IDT60901/IDT60901.94964.json